createdAt,value
2023-03-29T00:02:21.211Z,5.57
2023-03-29T00:04:48.862Z,5.57
2023-03-29T00:07:16.727Z,5.58
2023-03-29T00:09:45.079Z,5.59
2023-03-29T00:12:12.836Z,5.60
2023-03-29T00:14:40.646Z,5.62
2023-03-29T00:17:08.340Z,5.63
2023-03-29T00:19:37.242Z,5.65
2023-03-29T00:22:06.008Z,5.66
2023-03-29T00:24:33.618Z,5.66
2023-03-29T00:27:01.324Z,5.65
2023-03-29T00:29:28.906Z,5.64
2023-03-29T00:31:57.797Z,5.62
2023-03-29T00:34:26.451Z,5.60
2023-03-29T00:36:58.102Z,5.57
2023-03-29T00:39:25.891Z,5.54
2023-03-29T00:41:53.483Z,5.53
2023-03-29T00:44:21.376Z,5.52
2023-03-29T00:46:49.128Z,5.54
2023-03-29T00:49:16.843Z,5.56
2023-03-29T00:51:44.442Z,5.57
2023-03-29T00:54:15.078Z,5.57
2023-03-29T00:56:43.920Z,5.58
2023-03-29T00:59:11.831Z,5.58
2023-03-29T01:01:42.316Z,5.62
2023-03-29T01:04:18.054Z,5.64
2023-03-29T01:06:46.109Z,5.68
2023-03-29T01:09:13.871Z,5.69
2023-03-29T01:11:42.192Z,5.73
2023-03-29T01:14:09.847Z,5.73
2023-03-29T01:16:38.428Z,5.75
2023-03-29T01:19:08.030Z,5.77
2023-03-29T01:21:36.466Z,5.79
2023-03-29T01:24:07.042Z,5.81
2023-03-29T01:26:34.832Z,5.85
2023-03-29T01:29:02.537Z,5.88
2023-03-29T01:31:30.559Z,5.91
2023-03-29T01:33:58.130Z,5.95
2023-03-29T01:36:27.321Z,5.99
2023-03-29T01:38:55.254Z,6.01
2023-03-29T01:41:23.055Z,6.05
2023-03-29T01:43:51.407Z,6.07
2023-03-29T01:46:19.117Z,6.10
2023-03-29T01:48:46.932Z,6.11
2023-03-29T01:51:14.609Z,6.13
2023-03-29T01:53:42.673Z,6.16
2023-03-29T01:56:12.033Z,6.15
2023-03-29T01:58:40.145Z,6.17
2023-03-29T02:01:10.041Z,6.18
2023-03-29T02:03:42.407Z,6.18
2023-03-29T02:06:10.368Z,6.19
2023-03-29T02:08:39.057Z,6.19
2023-03-29T02:11:07.760Z,6.20
2023-03-29T02:13:35.392Z,6.21
2023-03-29T02:16:03.342Z,6.22
2023-03-29T02:18:31.517Z,6.23
2023-03-29T02:20:59.746Z,6.24
2023-03-29T02:23:27.517Z,6.24
2023-03-29T02:25:55.097Z,6.23
2023-03-29T02:28:22.655Z,6.24
2023-03-29T02:30:50.265Z,6.26
2023-03-29T02:33:18.220Z,6.28
2023-03-29T02:35:45.844Z,6.30
2023-03-29T02:38:14.805Z,6.32
2023-03-29T02:40:42.817Z,6.34
2023-03-29T02:43:11.624Z,6.36
2023-03-29T02:45:39.613Z,6.37
2023-03-29T02:48:07.623Z,6.37
2023-03-29T02:50:35.342Z,6.39
2023-03-29T02:53:02.925Z,6.40
2023-03-29T02:55:31.443Z,6.41
2023-03-29T02:57:59.381Z,6.44
2023-03-29T03:00:27.135Z,6.45
2023-03-29T03:02:55.377Z,6.47
2023-03-29T03:05:23.980Z,6.49
2023-03-29T03:07:52.105Z,6.50
2023-03-29T03:10:20.138Z,6.53
2023-03-29T03:12:47.762Z,6.55
2023-03-29T03:15:15.587Z,6.57
2023-03-29T03:17:43.271Z,6.58
2023-03-29T03:20:13.269Z,6.59
2023-03-29T03:22:41.295Z,6.60
2023-03-29T03:25:10.780Z,6.61
2023-03-29T03:27:38.681Z,6.62
2023-03-29T03:30:06.667Z,6.62
2023-03-29T03:32:34.550Z,6.63
2023-03-29T03:35:02.559Z,6.63
2023-03-29T03:37:30.127Z,6.65
2023-03-29T03:39:57.719Z,6.66
2023-03-29T03:42:25.455Z,6.68
2023-03-29T03:44:53.025Z,6.70
2023-03-29T03:47:20.992Z,6.72
2023-03-29T03:49:48.542Z,6.75
2023-03-29T03:52:16.458Z,6.75
2023-03-29T03:54:47.039Z,6.79
2023-03-29T03:57:15.256Z,6.81
2023-03-29T03:59:43.267Z,6.84
2023-03-29T04:02:11.257Z,6.87
2023-03-29T04:04:39.542Z,6.91
2023-03-29T04:07:07.101Z,6.97
2023-03-29T04:09:36.563Z,7.00
2023-03-29T04:12:04.505Z,7.03
2023-03-29T04:14:32.537Z,7.06
2023-03-29T04:17:00.214Z,7.09
2023-03-29T04:19:27.818Z,7.10
2023-03-29T04:21:55.618Z,7.11
2023-03-29T04:24:23.283Z,7.14
2023-03-29T04:26:50.833Z,7.14
2023-03-29T04:29:18.435Z,7.15
2023-03-29T04:31:46.471Z,7.16
2023-03-29T04:34:14.149Z,7.15
2023-03-29T04:36:42.113Z,7.14
2023-03-29T04:39:10.333Z,7.15
2023-03-29T04:41:37.937Z,7.11
2023-03-29T04:44:05.480Z,7.09
2023-03-29T04:46:33.432Z,7.09
2023-03-29T04:49:01.618Z,7.05
2023-03-29T04:51:29.220Z,7.04
2023-03-29T04:53:57.196Z,7.00
2023-03-29T04:56:24.750Z,6.97
2023-03-29T04:58:52.579Z,6.95
2023-03-29T05:01:20.599Z,6.92
2023-03-29T05:03:48.228Z,6.92
2023-03-29T05:06:15.863Z,6.91
2023-03-29T05:08:43.578Z,6.89
2023-03-29T05:11:11.696Z,6.87
2023-03-29T05:13:39.911Z,6.88
2023-03-29T05:16:08.049Z,6.88
2023-03-29T05:18:35.844Z,6.88
2023-03-29T05:21:04.468Z,6.90
2023-03-29T05:23:32.386Z,6.92
2023-03-29T05:26:00.381Z,6.93
2023-03-29T05:28:27.989Z,6.95
2023-03-29T05:30:55.734Z,6.98
2023-03-29T05:33:23.646Z,7.02
2023-03-29T05:35:51.675Z,7.04
2023-03-29T05:38:20.096Z,7.09
2023-03-29T05:40:47.726Z,7.10
2023-03-29T05:43:15.405Z,7.14
2023-03-29T05:45:43.446Z,7.16
2023-03-29T05:48:11.392Z,7.19
2023-03-29T05:50:39.415Z,7.23
2023-03-29T05:53:07.070Z,7.24
2023-03-29T05:55:34.769Z,7.27
2023-03-29T05:58:02.406Z,7.28
2023-03-29T06:00:32.189Z,7.30
2023-03-29T06:03:13.304Z,7.30
2023-03-29T06:05:47.740Z,7.27
2023-03-29T06:08:16.912Z,7.24
2023-03-29T06:10:45.580Z,7.23
2023-03-29T06:13:13.374Z,7.23
2023-03-29T06:15:41.112Z,7.24
2023-03-29T06:18:09.946Z,7.23
2023-03-29T06:20:37.671Z,7.24
2023-03-29T06:23:05.676Z,7.25
2023-03-29T06:25:34.631Z,7.28
2023-03-29T06:28:02.602Z,7.31
2023-03-29T06:30:30.267Z,7.36
2023-03-29T06:32:58.048Z,7.41
2023-03-29T06:35:26.360Z,7.45
2023-03-29T06:37:54.932Z,7.49
2023-03-29T06:40:23.001Z,7.53
2023-03-29T06:42:57.979Z,7.57
2023-03-29T06:45:27.475Z,7.60
2023-03-29T06:47:57.563Z,7.66
2023-03-29T06:50:25.903Z,7.69
2023-03-29T06:52:53.728Z,7.75
2023-03-29T06:55:22.867Z,7.78
2023-03-29T06:57:50.702Z,7.82
2023-03-29T07:00:19.829Z,7.86
2023-03-29T07:02:47.639Z,7.88
2023-03-29T07:05:16.339Z,7.90
2023-03-29T07:07:57.036Z,7.93
2023-03-29T07:10:26.252Z,7.97
2023-03-29T07:12:54.142Z,8.01
2023-03-29T07:15:22.085Z,8.10
2023-03-29T07:17:49.843Z,8.18
2023-03-29T07:20:17.951Z,8.26
2023-03-29T07:22:46.222Z,8.37
2023-03-29T07:25:14.090Z,8.46
2023-03-29T07:27:42.382Z,8.55
2023-03-29T07:30:11.981Z,8.60
2023-03-29T07:32:40.210Z,8.67
2023-03-29T07:35:07.926Z,8.71
2023-03-29T07:37:36.673Z,8.75
2023-03-29T07:40:09.231Z,8.81
2023-03-29T07:42:37.865Z,8.86
2023-03-29T07:45:06.124Z,8.90
2023-03-29T07:47:34.574Z,8.95
2023-03-29T07:50:02.462Z,9.01
2023-03-29T07:52:30.308Z,9.06
2023-03-29T07:54:58.251Z,9.12
2023-03-29T07:57:26.797Z,9.18
2023-03-29T07:59:55.033Z,9.24
2023-03-29T08:02:22.888Z,9.27
2023-03-29T08:04:50.876Z,9.31
2023-03-29T08:07:20.156Z,9.40
2023-03-29T08:09:48.189Z,9.49
2023-03-29T08:12:16.981Z,9.57
2023-03-29T08:14:44.906Z,9.64
2023-03-29T08:17:12.833Z,9.68
2023-03-29T08:19:41.119Z,9.76
2023-03-29T08:22:19.127Z,9.82
2023-03-29T08:24:46.820Z,9.91
2023-03-29T08:27:14.847Z,10.00
2023-03-29T08:29:42.802Z,10.10
2023-03-29T08:32:10.846Z,10.20
2023-03-29T08:34:39.242Z,10.26
2023-03-29T08:37:07.080Z,10.35
2023-03-29T08:39:34.825Z,10.50
2023-03-29T08:42:02.738Z,10.64
2023-03-29T08:44:30.855Z,10.77
2023-03-29T08:46:59.649Z,10.93
2023-03-29T08:49:27.511Z,11.02
2023-03-29T08:51:55.407Z,11.06
2023-03-29T08:54:25.215Z,11.11
2023-03-29T08:56:53.009Z,11.19
2023-03-29T08:59:21.931Z,11.30
2023-03-29T09:01:49.935Z,11.39
2023-03-29T09:04:19.124Z,11.49
2023-03-29T09:06:47.930Z,11.59
2023-03-29T09:09:16.040Z,11.63
2023-03-29T09:11:44.088Z,11.64
2023-03-29T09:14:11.971Z,11.66
2023-03-29T09:16:39.821Z,11.70
2023-03-29T09:19:08.203Z,11.65
2023-03-29T09:21:36.227Z,11.55
2023-03-29T09:24:04.528Z,11.47
2023-03-29T09:26:32.756Z,11.40
2023-03-29T09:29:00.733Z,11.38
2023-03-29T09:31:29.000Z,11.36
2023-03-29T09:33:56.841Z,11.33
2023-03-29T09:36:25.333Z,11.31
2023-03-29T09:38:54.609Z,11.30
2023-03-29T09:41:22.762Z,11.28
2023-03-29T09:43:50.616Z,11.31
2023-03-29T09:46:18.470Z,11.35
2023-03-29T09:48:46.936Z,11.34
2023-03-29T09:51:15.222Z,11.33
2023-03-29T09:53:43.597Z,11.33
2023-03-29T09:56:11.454Z,11.34
2023-03-29T09:58:39.402Z,11.37
2023-03-29T10:01:09.328Z,11.38
2023-03-29T10:03:37.354Z,11.44
2023-03-29T10:06:05.570Z,11.52
2023-03-29T10:08:33.591Z,11.62
2023-03-29T10:11:02.050Z,11.69
2023-03-29T10:13:31.274Z,11.83
2023-03-29T10:15:59.538Z,11.99
2023-03-29T10:18:28.027Z,12.20
2023-03-29T10:20:55.859Z,12.36
2023-03-29T10:23:23.770Z,12.42
2023-03-29T10:25:52.648Z,12.42
2023-03-29T10:28:21.526Z,12.45
2023-03-29T10:30:49.610Z,12.52
2023-03-29T10:33:17.652Z,12.56
2023-03-29T10:35:45.800Z,12.58
2023-03-29T10:38:15.163Z,12.61
2023-03-29T10:40:43.077Z,12.62
2023-03-29T10:43:11.154Z,12.63
2023-03-29T10:45:38.965Z,12.61
2023-03-29T10:48:08.122Z,12.53
2023-03-29T10:50:39.148Z,12.51
2023-03-29T10:53:07.003Z,12.61
2023-03-29T10:55:35.200Z,12.71
2023-03-29T10:58:03.102Z,12.79
2023-03-29T11:00:31.271Z,12.88
2023-03-29T11:02:59.744Z,13.03
2023-03-29T11:05:27.924Z,13.26
2023-03-29T11:07:55.792Z,13.53
2023-03-29T11:10:25.023Z,13.78
2023-03-29T11:12:53.185Z,13.98
2023-03-29T11:15:22.083Z,14.03
2023-03-29T11:17:51.175Z,14.06
2023-03-29T11:20:19.209Z,14.27
2023-03-29T11:22:47.983Z,14.44
2023-03-29T11:25:16.326Z,14.61
2023-03-29T11:27:44.485Z,14.81
2023-03-29T11:30:12.708Z,15.08
2023-03-29T11:32:40.631Z,15.17
2023-03-29T11:35:08.722Z,15.17
2023-03-29T11:37:36.689Z,15.22
2023-03-29T11:40:05.843Z,15.32
2023-03-29T11:42:33.733Z,15.34
2023-03-29T11:45:02.107Z,15.37
2023-03-29T11:47:30.034Z,15.38
2023-03-29T11:49:57.876Z,15.40
2023-03-29T11:52:26.493Z,15.51
2023-03-29T11:54:54.838Z,15.81
2023-03-29T11:57:23.017Z,16.00
2023-03-29T11:59:50.882Z,16.01
2023-03-29T12:02:18.712Z,15.88
2023-03-29T12:04:47.080Z,15.81
2023-03-29T12:07:15.267Z,15.76
2023-03-29T12:09:43.154Z,15.74
2023-03-29T12:12:11.220Z,16.52
2023-03-29T12:14:39.058Z,17.06
2023-03-29T12:17:08.085Z,17.67
2023-03-29T12:19:40.270Z,18.65
2023-03-29T12:22:09.708Z,18.87
2023-03-29T12:24:37.590Z,18.66
2023-03-29T12:27:05.616Z,18.84
2023-03-29T12:29:34.535Z,18.43
2023-03-29T12:32:02.710Z,17.93
2023-03-29T12:34:31.324Z,17.81
2023-03-29T12:37:00.869Z,17.92
2023-03-29T12:39:29.326Z,18.10
2023-03-29T12:41:57.935Z,18.43
2023-03-29T12:44:25.841Z,18.84
2023-03-29T12:46:53.895Z,19.00
2023-03-29T12:49:21.858Z,18.96
2023-03-29T12:51:49.843Z,18.70
2023-03-29T12:54:18.896Z,18.23
2023-03-29T12:56:46.773Z,17.77
2023-03-29T12:59:14.722Z,17.57
2023-03-29T13:01:42.936Z,17.52
2023-03-29T13:04:10.840Z,17.37
2023-03-29T13:06:40.165Z,17.19
2023-03-29T13:09:08.425Z,17.01
2023-03-29T13:11:36.174Z,16.88
2023-03-29T13:14:05.051Z,16.75
2023-03-29T13:16:33.093Z,16.53
2023-03-29T13:19:02.325Z,16.31
2023-03-29T13:21:30.210Z,16.12
2023-03-29T13:23:58.252Z,16.00
2023-03-29T13:26:27.326Z,15.87
2023-03-29T13:28:57.265Z,15.69
2023-03-29T13:31:27.232Z,15.45
2023-03-29T13:33:55.614Z,15.30
2023-03-29T13:36:24.004Z,15.23
2023-03-29T13:38:52.106Z,15.15
2023-03-29T13:41:20.144Z,15.05
2023-03-29T13:43:49.000Z,14.96
2023-03-29T13:46:17.064Z,14.93
2023-03-29T13:48:44.884Z,14.93
2023-03-29T13:51:12.762Z,15.09
2023-03-29T13:53:41.403Z,15.37
2023-03-29T13:56:09.822Z,15.66
2023-03-29T13:58:38.093Z,16.02
2023-03-29T14:01:06.669Z,16.23
2023-03-29T14:03:34.587Z,16.31
2023-03-29T14:06:02.695Z,16.36
2023-03-29T14:08:32.381Z,16.42
2023-03-29T14:11:01.205Z,16.38
2023-03-29T14:13:29.094Z,16.27
2023-03-29T14:15:56.991Z,16.22
2023-03-29T14:18:24.726Z,16.19
2023-03-29T14:20:54.406Z,16.15
2023-03-29T14:23:22.394Z,16.08
2023-03-29T14:25:50.248Z,16.08
2023-03-29T14:28:18.063Z,16.02
2023-03-29T14:30:47.023Z,16.00
2023-03-29T14:33:15.483Z,16.00
2023-03-29T14:35:43.486Z,16.05
2023-03-29T14:38:11.436Z,16.17
2023-03-29T14:40:39.386Z,16.35
2023-03-29T14:43:08.185Z,16.52
2023-03-29T14:45:36.517Z,16.58
2023-03-29T14:48:04.494Z,16.56
2023-03-29T14:50:32.559Z,16.52
2023-03-29T14:53:00.937Z,16.49
2023-03-29T14:55:28.836Z,16.49
2023-03-29T14:57:56.975Z,16.49
2023-03-29T15:00:26.633Z,16.48
2023-03-29T15:02:54.575Z,16.44
2023-03-29T15:05:24.920Z,16.41
2023-03-29T15:07:56.483Z,16.31
2023-03-29T15:10:25.118Z,16.23
2023-03-29T15:12:53.119Z,16.14
2023-03-29T15:15:21.234Z,16.05
2023-03-29T15:17:52.115Z,15.96
2023-03-29T15:20:21.649Z,15.88
2023-03-29T15:22:49.686Z,15.86
2023-03-29T15:25:17.885Z,15.90
2023-03-29T15:27:46.000Z,15.94
2023-03-29T15:30:13.836Z,16.03
2023-03-29T15:32:42.185Z,16.17
2023-03-29T15:35:11.410Z,16.34
2023-03-29T15:37:39.290Z,16.45
2023-03-29T15:40:09.999Z,16.49
2023-03-29T15:42:38.009Z,16.60
2023-03-29T15:45:06.577Z,16.65
2023-03-29T15:47:36.133Z,16.65
2023-03-29T15:50:04.499Z,16.62
2023-03-29T15:52:32.858Z,16.57
2023-03-29T15:55:00.773Z,16.42
2023-03-29T15:57:29.074Z,16.29
2023-03-29T15:59:58.117Z,16.17
2023-03-29T16:02:26.344Z,16.08
2023-03-29T16:04:54.408Z,16.01
2023-03-29T16:07:22.249Z,15.93
2023-03-29T16:09:50.979Z,15.87
2023-03-29T16:12:19.620Z,15.80
2023-03-29T16:14:47.599Z,15.77
2023-03-29T16:17:16.188Z,15.75
2023-03-29T16:19:44.220Z,15.74
2023-03-29T16:22:12.029Z,15.72
2023-03-29T16:24:40.214Z,15.69
2023-03-29T16:27:08.150Z,15.64
2023-03-29T16:29:36.227Z,15.60
2023-03-29T16:32:06.786Z,15.56
2023-03-29T16:34:36.282Z,15.52
2023-03-29T16:37:05.220Z,15.48
2023-03-29T16:39:33.102Z,15.45
2023-03-29T16:42:01.356Z,15.41
2023-03-29T16:44:29.202Z,15.40
2023-03-29T16:46:58.284Z,15.37
2023-03-29T16:49:26.855Z,15.35
2023-03-29T16:51:54.705Z,15.35
2023-03-29T16:54:26.049Z,15.36
2023-03-29T16:56:54.144Z,15.36
2023-03-29T16:59:22.072Z,15.36
2023-03-29T17:01:50.058Z,15.36
2023-03-29T17:04:18.071Z,15.34
2023-03-29T17:06:45.969Z,15.31
2023-03-29T17:09:13.865Z,15.28
2023-03-29T17:11:41.981Z,15.26
2023-03-29T17:14:10.741Z,15.23
2023-03-29T17:16:38.994Z,15.22
2023-03-29T17:19:06.920Z,15.19
2023-03-29T17:21:34.708Z,15.16
2023-03-29T17:24:02.680Z,15.15
2023-03-29T17:26:30.835Z,15.13
2023-03-29T17:28:58.706Z,15.12
2023-03-29T17:31:26.610Z,15.10
2023-03-29T17:33:54.727Z,15.10
2023-03-29T17:36:24.385Z,15.10
2023-03-29T17:38:55.238Z,15.08
2023-03-29T17:41:23.142Z,15.06
2023-03-29T17:43:51.191Z,15.04
2023-03-29T17:46:22.947Z,15.01
2023-03-29T17:48:51.819Z,14.99
2023-03-29T17:51:19.884Z,14.96
2023-03-29T17:53:47.882Z,14.95
2023-03-29T17:56:16.368Z,14.93
2023-03-29T17:58:44.314Z,14.92
2023-03-29T18:01:12.589Z,14.91
2023-03-29T18:03:40.686Z,14.92
2023-03-29T18:06:08.621Z,14.92
2023-03-29T18:08:36.400Z,14.93
2023-03-29T18:11:04.345Z,14.92
2023-03-29T18:13:32.186Z,14.92
2023-03-29T18:16:01.002Z,14.94
2023-03-29T18:18:29.062Z,14.96
2023-03-29T18:20:56.940Z,14.96
2023-03-29T18:23:24.795Z,14.97
2023-03-29T18:25:52.637Z,14.98
2023-03-29T18:28:21.117Z,14.96
2023-03-29T18:30:49.036Z,14.94
2023-03-29T18:33:17.246Z,14.93
2023-03-29T18:35:48.714Z,14.91
2023-03-29T18:38:16.592Z,14.92
2023-03-29T18:40:45.428Z,14.90
2023-03-29T18:43:13.822Z,14.87
2023-03-29T18:45:41.713Z,14.87
2023-03-29T18:48:09.817Z,14.87
2023-03-29T18:50:37.858Z,14.87
2023-03-29T18:53:06.450Z,14.88
2023-03-29T18:55:34.360Z,14.87
2023-03-29T18:58:02.246Z,14.83
2023-03-29T19:00:30.146Z,14.79
2023-03-29T19:02:58.100Z,14.74
2023-03-29T19:05:28.248Z,14.70
2023-03-29T19:07:56.630Z,14.64
2023-03-29T19:10:25.062Z,14.61
2023-03-29T19:12:52.827Z,14.58
2023-03-29T19:15:20.688Z,14.59
2023-03-29T19:17:49.341Z,14.59
2023-03-29T19:20:17.408Z,14.57
2023-03-29T19:22:45.225Z,14.54
2023-03-29T19:25:13.229Z,14.54
2023-03-29T19:27:41.749Z,14.54
2023-03-29T19:30:09.861Z,14.54
2023-03-29T19:32:38.041Z,14.53
2023-03-29T19:35:05.943Z,14.51
2023-03-29T19:37:33.726Z,14.53
2023-03-29T19:40:01.475Z,14.50
2023-03-29T19:42:29.710Z,14.47
2023-03-29T19:44:57.679Z,14.45
2023-03-29T19:47:25.593Z,14.44
2023-03-29T19:49:53.512Z,14.42
2023-03-29T19:52:24.141Z,14.43
2023-03-29T19:54:52.457Z,14.44
2023-03-29T19:57:20.462Z,14.43
2023-03-29T19:59:48.363Z,14.43
2023-03-29T20:02:16.297Z,14.42
2023-03-29T20:04:44.090Z,14.40
2023-03-29T20:07:13.043Z,14.37
2023-03-29T20:09:45.120Z,14.32
2023-03-29T20:12:13.156Z,14.30
2023-03-29T20:14:43.465Z,14.29
2023-03-29T20:17:11.385Z,14.28
2023-03-29T20:19:44.639Z,14.26
2023-03-29T20:22:12.565Z,14.26
2023-03-29T20:24:40.490Z,14.24
2023-03-29T20:27:08.941Z,14.21
2023-03-29T20:29:36.801Z,14.23
2023-03-29T20:32:04.915Z,14.21
2023-03-29T20:34:32.827Z,14.21
2023-03-29T20:37:02.352Z,14.19
2023-03-29T20:39:31.756Z,14.18
2023-03-29T20:42:00.780Z,14.18
2023-03-29T20:44:28.858Z,14.18
2023-03-29T20:47:03.590Z,14.18
2023-03-29T20:49:37.693Z,14.17
2023-03-29T20:52:06.544Z,14.14
2023-03-29T20:54:35.341Z,14.13
2023-03-29T20:57:03.180Z,14.13
2023-03-29T20:59:31.154Z,14.12
2023-03-29T21:02:00.504Z,14.13
2023-03-29T21:04:28.437Z,14.14
2023-03-29T21:06:56.751Z,14.10
2023-03-29T21:09:25.652Z,14.09
2023-03-29T21:11:53.997Z,14.09
2023-03-29T21:14:22.480Z,14.09
2023-03-29T21:16:51.096Z,14.07
2023-03-29T21:19:19.651Z,14.05
2023-03-29T21:21:52.316Z,14.02
2023-03-29T21:24:20.114Z,13.96
2023-03-29T21:26:47.934Z,13.92
2023-03-29T21:29:15.680Z,13.86
2023-03-29T21:31:43.873Z,13.86
2023-03-29T21:34:12.040Z,13.89
2023-03-29T21:36:40.024Z,13.90
2023-03-29T21:39:07.811Z,13.88
2023-03-29T21:41:35.615Z,13.89
2023-03-29T21:44:03.825Z,13.90
2023-03-29T21:46:31.704Z,13.92
2023-03-29T21:48:59.446Z,13.91
2023-03-29T21:51:27.304Z,13.91
2023-03-29T21:53:55.106Z,13.91
2023-03-29T21:56:24.920Z,13.90
2023-03-29T21:58:52.706Z,13.94
2023-03-29T22:01:20.495Z,13.98
2023-03-29T22:03:48.310Z,14.00
2023-03-29T22:06:16.158Z,14.04
2023-03-29T22:08:44.366Z,14.05
2023-03-29T22:11:14.015Z,14.07
2023-03-29T22:13:41.664Z,14.09
2023-03-29T22:16:09.526Z,14.13
2023-03-29T22:18:43.958Z,14.12
2023-03-29T22:21:13.353Z,14.11
2023-03-29T22:23:41.085Z,14.08
2023-03-29T22:26:08.800Z,14.05
2023-03-29T22:28:36.659Z,14.05
2023-03-29T22:31:04.696Z,14.03
2023-03-29T22:33:32.849Z,14.00
2023-03-29T22:36:00.774Z,13.97
2023-03-29T22:38:28.982Z,13.95
2023-03-29T22:40:56.618Z,13.94
2023-03-29T22:43:24.510Z,13.92
2023-03-29T22:45:52.288Z,13.92
2023-03-29T22:48:19.895Z,13.96
2023-03-29T22:50:47.614Z,14.00
2023-03-29T22:53:15.325Z,14.00
2023-03-29T22:55:43.055Z,14.00
2023-03-29T22:58:11.199Z,14.01
2023-03-29T23:00:39.220Z,14.06
2023-03-29T23:03:07.051Z,14.10
2023-03-29T23:05:34.760Z,14.13
2023-03-29T23:08:02.446Z,14.16
2023-03-29T23:10:30.955Z,14.18
2023-03-29T23:13:08.645Z,14.23
2023-03-29T23:15:36.224Z,14.28
2023-03-29T23:18:04.824Z,14.30
2023-03-29T23:20:33.393Z,14.29
2023-03-29T23:23:01.320Z,14.28
2023-03-29T23:25:28.935Z,14.29
2023-03-29T23:27:56.845Z,14.30
2023-03-29T23:30:24.434Z,14.31
2023-03-29T23:32:52.899Z,14.31
2023-03-29T23:35:20.624Z,14.26
2023-03-29T23:37:48.241Z,14.25
2023-03-29T23:40:15.986Z,14.27
2023-03-29T23:42:44.002Z,14.28
2023-03-29T23:45:12.833Z,14.25
2023-03-29T23:47:40.486Z,14.24
2023-03-29T23:50:09.582Z,14.24
2023-03-29T23:52:37.251Z,14.24
2023-03-29T23:55:04.841Z,14.23
2023-03-29T23:57:35.496Z,14.23
